Time;durP1;ratioP1;P1;durP2;ratioP2;P2;SDS_P1;SDS_P2;PMS_P1;PMS_P2;Temp;Humidity;BMP_temperature;BMP_pressure;BME280_temperature;BME280_humidity;BME280_pressure;Samples;Min_cycle;Max_cycle;Signal;HPM_P1;HPM_P2
2024/01/11 00:01:11;;;;;;;34.92;21.90;;;0.40;94.90;;;;;;4247913;27;20073;-70
2024/01/11 00:03:13;;;;;;;26.98;17.63;;;0.50;94.60;;;;;;4247812;27;20047;-70
2024/01/11 00:05:15;;;;;;;38.63;22.70;;;0.40;94.60;;;;;;4247631;27;20054;-70
2024/01/11 00:07:17;;;;;;;39.88;23.05;;;0.40;94.70;;;;;;4247711;27;20051;-70
2024/01/11 00:09:19;;;;;;;36.50;21.95;;;0.40;94.80;;;;;;4247454;27;20043;-71
2024/01/11 00:11:22;;;;;;;39.40;22.95;;;0.40;94.80;;;;;;4248001;27;20039;-70
2024/01/11 00:13:25;;;;;;;27.17;16.52;;;0.40;94.70;;;;;;4247715;27;20039;-69
2024/01/11 00:15:27;;;;;;;39.92;22.35;;;0.40;94.80;;;;;;4247880;27;20047;-68
2024/01/11 00:17:31;;;;;;;39.33;22.48;;;0.40;94.60;;;;;;4251617;27;20039;-70
2024/01/11 00:19:33;;;;;;;39.22;22.60;;;0.40;94.80;;;;;;4232787;28;20464;-70
2024/01/11 00:21:37;;;;;;;34.17;21.92;;;0.30;94.80;;;;;;4248734;28;20051;-69
2024/01/11 00:23:43;;;;;;;38.05;22.15;;;0.40;95.00;;;;;;4230440;28;20039;-70
2024/01/11 00:25:45;;;;;;;36.63;20.33;;;0.40;94.90;;;;;;4248104;28;20092;-71
2024/01/11 00:27:47;;;;;;;36.75;22.42;;;0.50;95.50;;;;;;4247604;28;20530;-69
2024/01/11 00:29:49;;;;;;;40.20;21.73;;;0.50;94.90;;;;;;4229818;28;20048;-70
2024/01/11 00:31:51;;;;;;;36.13;22.17;;;0.50;94.60;;;;;;4248043;27;20130;-70
2024/01/11 00:33:55;;;;;;;37.88;21.67;;;0.50;94.80;;;;;;4248545;28;20047;-70
2024/01/11 00:35:58;;;;;;;37.72;22.92;;;0.50;94.90;;;;;;4247718;28;20441;-70
2024/01/11 00:38:00;;;;;;;35.60;22.27;;;0.40;94.40;;;;;;4247222;28;20051;-69
2024/01/11 00:40:03;;;;;;;36.70;22.75;;;0.40;94.60;;;;;;4228954;28;20068;-70
2024/01/11 00:42:05;;;;;;;38.25;22.17;;;0.40;94.90;;;;;;4250736;27;20062;-71
2024/01/11 00:44:08;;;;;;;39.88;23.05;;;0.30;94.60;;;;;;4250721;27;20047;-70
2024/01/11 00:46:10;;;;;;;37.97;22.17;;;0.40;94.70;;;;;;4251099;27;20082;-70
2024/01/11 00:48:12;;;;;;;42.53;23.85;;;0.30;94.70;;;;;;4233878;28;20043;-71
2024/01/11 00:50:16;;;;;;;39.53;23.02;;;0.20;94.70;;;;;;4251612;27;20481;-71
2024/01/11 00:52:18;;;;;;;38.17;23.60;;;0.30;95.30;;;;;;4250906;27;20071;-70
2024/01/11 00:54:20;;;;;;;39.28;23.70;;;0.30;94.90;;;;;;4250990;27;20049;-70
2024/01/11 00:56:22;;;;;;;36.47;22.58;;;0.30;94.90;;;;;;4251102;27;20526;-70
2024/01/11 00:58:24;;;;;;;38.65;24.15;;;0.40;95.10;;;;;;4251012;27;20100;-69
2024/01/11 01:00:27;;;;;;;41.47;24.05;;;0.50;95.10;;;;;;4250972;27;20055;-70
2024/01/11 01:02:29;;;;;;;36.70;22.38;;;0.40;94.70;;;;;;4232572;28;20051;-69
2024/01/11 01:04:31;;;;;;;37.50;22.40;;;0.50;95.40;;;;;;4232787;28;20043;-70
2024/01/11 01:06:35;;;;;;;36.03;22.45;;;0.50;94.90;;;;;;4251667;27;20043;-69
2024/01/11 01:08:37;;;;;;;43.83;22.85;;;0.50;95.00;;;;;;4251701;27;20504;-70
2024/01/11 01:10:39;;;;;;;40.65;23.40;;;0.50;95.00;;;;;;4250810;27;20511;-70
2024/01/11 01:12:41;;;;;;;41.50;24.85;;;0.50;95.10;;;;;;4250377;27;20051;-69
2024/01/11 01:14:43;;;;;;;38.13;22.65;;;0.60;94.80;;;;;;4232643;28;20043;-68
2024/01/11 01:16:46;;;;;;;41.90;23.45;;;0.50;94.80;;;;;;4251119;27;20043;-70
2024/01/11 01:18:48;;;;;;;39.65;22.70;;;0.40;95.00;;;;;;4232815;28;20138;-70
2024/01/11 01:20:50;;;;;;;40.13;23.70;;;0.40;95.00;;;;;;4250872;27;20057;-70
2024/01/11 01:22:54;;;;;;;42.47;24.15;;;0.40;95.50;;;;;;4216171;28;20048;-70
2024/01/11 01:24:56;;;;;;;41.70;23.73;;;0.40;95.10;;;;;;4251579;27;20102;-70
2024/01/11 01:26:59;;;;;;;36.53;22.48;;;0.40;95.10;;;;;;4251333;27;20047;-69
2024/01/11 01:29:01;;;;;;;41.08;23.95;;;0.40;95.10;;;;;;4252037;27;20099;-70
2024/01/11 01:31:03;;;;;;;42.38;23.30;;;0.40;95.20;;;;;;4251352;27;20054;-70
2024/01/11 01:33:06;;;;;;;44.45;23.15;;;0.30;95.30;;;;;;4255934;27;20526;-69
2024/01/11 01:35:08;;;;;;;37.80;22.35;;;0.30;95.50;;;;;;4253137;27;20047;-70
2024/01/11 01:37:10;;;;;;;36.92;22.58;;;0.30;95.30;;;;;;4250694;27;20097;-69
2024/01/11 01:39:14;;;;;;;38.05;22.15;;;0.30;95.50;;;;;;4250857;27;20112;-70
2024/01/11 01:41:16;;;;;;;35.47;22.30;;;0.30;95.40;;;;;;4250124;27;20051;-70
2024/01/11 01:43:18;;;;;;;36.15;22.90;;;0.30;95.80;;;;;;4249666;27;20492;-70
2024/01/11 01:45:20;;;;;;;36.63;22.60;;;0.40;95.70;;;;;;4249999;27;20051;-69
2024/01/11 01:47:22;;;;;;;35.83;22.52;;;0.40;95.50;;;;;;4250538;27;20449;-70
2024/01/11 01:49:24;;;;;;;45.20;22.25;;;0.40;95.40;;;;;;4250444;27;20050;-70
2024/01/11 01:51:29;;;;;;;38.42;23.63;;;0.40;95.30;;;;;;4249536;27;20401;-70
2024/01/11 01:53:31;;;;;;;41.15;24.10;;;0.40;95.30;;;;;;4250401;27;20039;-71
2024/01/11 01:55:34;;;;;;;40.17;24.02;;;0.30;95.60;;;;;;4250444;27;20050;-70
2024/01/11 01:57:39;;;;;;;40.78;23.08;;;0.30;95.60;;;;;;4250455;27;20043;-70
2024/01/11 01:59:43;;;;;;;38.55;23.75;;;0.40;95.90;;;;;;4250780;27;20047;-70
2024/01/11 02:01:45;;;;;;;43.65;23.55;;;0.40;95.60;;;;;;4251079;27;20043;-70
2024/01/11 02:03:49;;;;;;;44.58;24.65;;;0.40;95.50;;;;;;4249813;27;20043;-70
2024/01/11 02:05:53;;;;;;;;;;;0.40;95.60;;;;;;4251273;27;20116;-70
2024/01/11 02:07:57;;;;;;;40.85;22.60;;;0.30;95.30;;;;;;4250667;27;19934;-69
2024/01/11 02:09:59;;;;;;;39.60;24.58;;;0.30;95.70;;;;;;4250473;27;20122;-70
2024/01/11 02:12:04;;;;;;;43.28;24.00;;;0.30;95.70;;;;;;4252879;27;20211;-69
2024/01/11 02:14:07;;;;;;;38.15;23.70;;;0.30;95.80;;;;;;4255740;27;20043;-70
2024/01/11 02:16:10;;;;;;;38.85;23.33;;;0.30;95.60;;;;;;4254138;27;20060;-69
2024/01/11 02:18:12;;;;;;;36.83;23.35;;;0.50;96.00;;;;;;4253899;27;20042;-68
2024/01/11 02:20:15;;;;;;;43.45;24.85;;;0.40;95.50;;;;;;4254996;27;20047;-69
2024/01/11 02:22:22;;;;;;;39.58;23.38;;;0.40;95.60;;;;;;4253332;27;20043;-69
2024/01/11 02:24:25;;;;;;;39.58;23.77;;;0.50;95.60;;;;;;4236107;28;20043;-70
2024/01/11 02:26:28;;;;;;;36.47;22.27;;;0.50;95.60;;;;;;4249686;27;20482;-66
2024/01/11 02:28:30;;;;;;;39.88;24.38;;;0.50;95.60;;;;;;4250791;27;20066;-66
2024/01/11 02:30:32;;;;;;;43.88;24.13;;;0.50;95.40;;;;;;4234241;28;20047;-67
2024/01/11 02:32:34;;;;;;;40.40;23.48;;;0.40;95.50;;;;;;4233142;28;20077;-67
2024/01/11 02:34:37;;;;;;;41.08;24.58;;;0.30;95.40;;;;;;4249627;27;20067;-67
2024/01/11 02:36:40;;;;;;;36.05;22.80;;;0.40;95.80;;;;;;4249915;27;20047;-67
2024/01/11 02:38:42;;;;;;;38.75;23.58;;;0.40;95.60;;;;;;4249941;27;20108;-69
2024/01/11 02:40:46;;;;;;;44.15;23.70;;;0.40;95.60;;;;;;4249607;27;20486;-69
2024/01/11 02:42:48;;;;;;;36.30;22.83;;;0.40;95.70;;;;;;4250109;27;20067;-70
2024/01/11 02:44:50;;;;;;;35.67;21.30;;;0.50;96.20;;;;;;4250390;27;20053;-69
2024/01/11 02:46:53;;;;;;;38.20;21.27;;;0.50;96.00;;;;;;4250051;27;20451;-69
2024/01/11 02:48:55;;;;;;;35.25;21.55;;;0.60;96.10;;;;;;4249675;27;20486;-70
2024/01/11 02:50:57;;;;;;;36.13;20.20;;;0.60;96.20;;;;;;4249846;27;20466;-70
2024/01/11 02:52:59;;;;;;;38.50;22.77;;;0.60;96.10;;;;;;4249905;27;20080;-69
2024/01/11 02:55:02;;;;;;;37.55;24.73;;;0.60;95.60;;;;;;4249755;27;20051;-69
2024/01/11 02:57:06;;;;;;;40.30;24.05;;;0.60;95.40;;;;;;4250136;27;20051;-69
2024/01/11 02:59:08;;;;;;;39.78;23.73;;;0.60;95.80;;;;;;4250159;27;20070;-69
2024/01/11 03:01:10;;;;;;;39.55;24.73;;;0.60;95.50;;;;;;4251031;27;20101;-70
2024/01/11 03:03:12;;;;;;;40.75;23.85;;;0.70;95.70;;;;;;4249377;27;20500;-70
2024/01/11 03:05:14;;;;;;;40.85;22.50;;;0.70;95.70;;;;;;4250261;27;20051;-70
2024/01/11 03:07:17;;;;;;;36.03;21.88;;;0.80;95.90;;;;;;4231624;28;20137;-69
2024/01/11 03:09:19;;;;;;;40.25;22.73;;;0.80;96.10;;;;;;4250420;27;20051;-70
2024/01/11 03:11:21;;;;;;;36.97;22.27;;;0.90;95.90;;;;;;4249766;27;20065;-69
2024/01/11 03:13:26;;;;;;;34.35;21.38;;;0.90;96.10;;;;;;4250011;27;20534;-70
2024/01/11 03:15:27;;;;;;;;;;;0.90;95.60;;;;;;4250753;27;20047;-69
2024/01/11 03:17:30;;;;;;;36.63;22.58;;;1.00;96.20;;;;;;4250111;27;19920;-70
2024/01/11 03:19:32;;;;;;;35.92;21.58;;;0.90;95.70;;;;;;4250894;27;20043;-69
2024/01/11 03:21:34;;;;;;;35.03;21.85;;;1.00;95.80;;;;;;4231298;28;20047;-70
2024/01/11 03:23:36;;;;;;;34.25;21.35;;;1.10;96.10;;;;;;4250044;27;20119;-71
2024/01/11 03:25:39;;;;;;;37.92;22.85;;;1.00;96.20;;;;;;4250411;27;20082;-69
2024/01/11 03:27:41;;;;;;;38.55;23.88;;;1.00;95.10;;;;;;4250956;27;20054;-69
2024/01/11 03:29:44;;;;;;;39.70;22.73;;;1.00;95.40;;;;;;4252821;27;20043;-70
2024/01/11 03:31:46;;;;;;;38.80;23.27;;;1.10;95.70;;;;;;4250945;27;20039;-69
2024/01/11 03:33:49;;;;;;;38.45;21.98;;;1.10;95.30;;;;;;4249495;27;20129;-71
2024/01/11 03:35:51;;;;;;;39.90;23.88;;;1.10;95.40;;;;;;4248905;27;20066;-70
2024/01/11 03:37:53;;;;;;;36.85;22.20;;;0.90;95.10;;;;;;4248808;27;20046;-69
2024/01/11 03:39:55;;;;;;;37.85;22.38;;;0.80;94.80;;;;;;4248493;27;20439;-69
2024/01/11 03:41:57;;;;;;;39.80;23.80;;;0.70;95.10;;;;;;4248188;27;20074;-69
2024/01/11 03:44:00;;;;;;;36.88;22.92;;;0.70;95.40;;;;;;4248072;27;20134;-69
2024/01/11 03:46:04;;;;;;;39.70;23.40;;;0.60;95.20;;;;;;4248319;27;20046;-70
2024/01/11 03:48:06;;;;;;;37.33;23.80;;;0.60;95.30;;;;;;4248114;27;20459;-71
2024/01/11 03:50:09;;;;;;;40.13;22.50;;;0.50;95.40;;;;;;4248511;27;20468;-70
2024/01/11 03:52:11;;;;;;;37.80;23.00;;;0.50;95.50;;;;;;4248051;27;20051;-69
2024/01/11 03:54:13;;;;;;;36.65;22.00;;;0.50;95.50;;;;;;4248190;27;20053;-69
2024/01/11 03:56:15;;;;;;;36.70;22.52;;;0.50;95.80;;;;;;4230180;28;20432;-69
2024/01/11 03:58:17;;;;;;;39.33;23.17;;;0.50;95.30;;;;;;4248771;27;20050;-70
2024/01/11 04:00:19;;;;;;;38.58;22.23;;;0.50;95.40;;;;;;4249484;27;20423;-70
2024/01/11 04:02:23;;;;;;;37.28;23.13;;;0.50;95.60;;;;;;4248792;27;20051;-70
2024/01/11 04:04:26;;;;;;;38.25;21.67;;;0.50;95.40;;;;;;4248462;27;20509;-69
2024/01/11 04:06:28;;;;;;;40.33;23.52;;;0.40;95.30;;;;;;4248041;27;20096;-69
2024/01/11 04:08:31;;;;;;;36.22;22.50;;;0.40;95.30;;;;;;4248301;27;20052;-71
2024/01/11 04:10:33;;;;;;;43.13;22.58;;;0.40;95.50;;;;;;4248700;27;20067;-70
2024/01/11 04:12:36;;;;;;;38.30;23.23;;;0.40;95.70;;;;;;4248579;27;20100;-70
2024/01/11 04:14:40;;;;;;;40.50;23.33;;;0.30;95.50;;;;;;4229710;28;20394;-70
2024/01/11 04:16:42;;;;;;;28.80;18.15;;;0.30;95.20;;;;;;4247797;27;20143;-70
2024/01/11 04:18:46;;;;;;;36.78;22.95;;;0.20;95.30;;;;;;4247665;27;20043;-70
2024/01/11 04:20:48;;;;;;;30.20;18.30;;;0.20;95.70;;;;;;4247538;28;20047;-69
2024/01/11 04:22:51;;;;;;;39.35;23.25;;;0.20;95.50;;;;;;4247627;28;20414;-69
2024/01/11 04:24:53;;;;;;;38.42;23.17;;;0.10;95.40;;;;;;4247615;28;20082;-70
2024/01/11 04:26:55;;;;;;;38.60;23.38;;;0.10;95.50;;;;;;4247346;27;20073;-69
2024/01/11 04:28:59;;;;;;;41.58;24.75;;;0.20;96.00;;;;;;4247829;28;20489;-69
2024/01/11 04:31:01;;;;;;;40.55;25.15;;;0.20;95.60;;;;;;4247686;28;20214;-69
2024/01/11 04:33:04;;;;;;;42.22;24.80;;;0.20;95.90;;;;;;4247599;28;20088;-69
2024/01/11 04:35:10;;;;;;;43.25;24.42;;;0.20;95.70;;;;;;4248276;28;20043;-69
2024/01/11 04:37:12;;;;;;;40.75;22.85;;;0.10;95.60;;;;;;4248181;28;20089;-70
2024/01/11 04:39:14;;;;;;;39.85;24.63;;;0.20;96.20;;;;;;4247779;28;20122;-69
2024/01/11 04:41:16;;;;;;;38.88;23.83;;;0.20;96.00;;;;;;4247613;28;20054;-69
2024/01/11 04:43:19;;;;;;;41.05;23.88;;;0.10;95.70;;;;;;4247597;27;20123;-70
2024/01/11 04:45:21;;;;;;;41.70;22.38;;;0.10;95.90;;;;;;4247533;28;20078;-68
2024/01/11 04:47:23;;;;;;;41.85;25.10;;;0.10;96.00;;;;;;4248211;28;20082;-70
2024/01/11 04:49:25;;;;;;;41.40;24.52;;;0.10;95.90;;;;;;4248452;27;20553;-69
2024/01/11 04:51:29;;;;;;;37.42;22.45;;;0.10;96.00;;;;;;4229523;28;20480;-69
2024/01/11 04:53:31;;;;;;;39.55;22.35;;;0.10;96.00;;;;;;4247761;28;20088;-69
2024/01/11 04:55:33;;;;;;;40.38;23.02;;;0.20;96.10;;;;;;4247956;28;20451;-71
2024/01/11 04:57:35;;;;;;;38.40;23.00;;;0.10;96.00;;;;;;4229916;28;20048;-67
2024/01/11 04:59:37;;;;;;;36.25;23.00;;;0.10;95.70;;;;;;4229154;28;20086;-67
2024/01/11 05:01:41;;;;;;;37.95;23.27;;;0.10;96.20;;;;;;4247593;27;20133;-69
2024/01/11 05:03:43;;;;;;;38.97;22.65;;;0.20;96.20;;;;;;4247333;28;20061;-71
2024/01/11 05:05:46;;;;;;;36.13;20.38;;;0.20;96.10;;;;;;4248088;28;20058;-69
2024/01/11 05:07:49;;;;;;;35.50;22.42;;;0.30;97.10;;;;;;4247376;28;20118;-68
2024/01/11 05:09:51;;;;;;;38.47;22.33;;;0.30;96.20;;;;;;4247334;28;20052;-70
2024/01/11 05:11:54;;;;;;;38.58;23.15;;;0.30;96.00;;;;;;4247474;28;20413;-70
2024/01/11 05:13:56;;;;;;;37.30;20.75;;;0.30;96.50;;;;;;4247295;28;20130;-70
2024/01/11 05:15:58;;;;;;;37.83;22.83;;;0.50;96.60;;;;;;4247844;28;20088;-70
2024/01/11 05:18:00;;;;;;;37.33;21.75;;;0.40;95.90;;;;;;4247696;28;20409;-69
2024/01/11 05:20:03;;;;;;;36.45;22.17;;;0.40;96.40;;;;;;4229552;28;20074;-69
2024/01/11 05:22:06;;;;;;;36.97;22.52;;;0.40;96.00;;;;;;4247620;28;20074;-67
2024/01/11 05:24:09;;;;;;;31.08;20.50;;;0.40;96.50;;;;;;4247889;27;20111;-70
2024/01/11 05:26:14;;;;;;;37.15;21.08;;;0.50;96.70;;;;;;4247433;27;20053;-69
2024/01/11 05:28:16;;;;;;;35.13;22.52;;;0.50;96.70;;;;;;4234191;28;20047;-71
2024/01/11 05:30:19;;;;;;;40.35;22.63;;;0.50;96.60;;;;;;4235234;28;20046;-70
2024/01/11 05:32:21;;;;;;;38.42;22.45;;;0.60;96.50;;;;;;4234340;28;20176;-69
2024/01/11 05:34:23;;;;;;;39.85;22.35;;;0.60;96.10;;;;;;4234270;28;20054;-70
2024/01/11 05:36:29;;;;;;;36.22;21.67;;;0.60;96.20;;;;;;4236451;28;20043;-70
2024/01/11 05:38:31;;;;;;;42.00;23.55;;;0.80;96.90;;;;;;4235987;28;20068;-69
2024/01/11 05:40:34;;;;;;;39.67;22.13;;;0.80;96.50;;;;;;4236008;28;20054;-70
2024/01/11 05:42:37;;;;;;;41.45;23.40;;;0.80;95.80;;;;;;4234669;28;20047;-71
2024/01/11 05:44:40;;;;;;;36.65;22.30;;;0.80;96.10;;;;;;4217280;28;20051;-71
2024/01/11 05:46:42;;;;;;;42.70;21.92;;;0.80;96.10;;;;;;4237664;28;20044;-70
2024/01/11 05:48:44;;;;;;;38.38;22.15;;;0.80;96.50;;;;;;4237567;28;20044;-70
2024/01/11 05:50:47;;;;;;;36.08;22.08;;;0.80;96.20;;;;;;4238453;28;20054;-71
2024/01/11 05:52:49;;;;;;;40.15;22.33;;;0.80;96.10;;;;;;4220687;28;20044;-70
2024/01/11 05:54:55;;;;;;;35.75;21.90;;;0.80;96.70;;;;;;4237882;28;20508;-71
2024/01/11 05:56:59;;;;;;;39.78;23.70;;;0.90;96.80;;;;;;4238786;28;20073;-70
2024/01/11 05:59:01;;;;;;;39.90;22.25;;;1.10;96.60;;;;;;4237230;28;20051;-72
2024/01/11 06:01:04;;;;;;;37.92;21.05;;;1.00;95.80;;;;;;4236715;28;20184;-70
2024/01/11 06:03:06;;;;;;;40.60;22.92;;;0.90;95.80;;;;;;4237543;28;20423;-71
2024/01/11 06:05:12;;;;;;;38.40;24.08;;;0.90;95.90;;;;;;4238807;28;20063;-70
2024/01/11 06:07:14;;;;;;;36.70;21.40;;;0.80;95.50;;;;;;4238206;28;20482;-71
2024/01/11 06:09:17;;;;;;;41.33;23.40;;;0.70;95.70;;;;;;4238089;28;20454;-71
2024/01/11 06:11:19;;;;;;;41.28;22.52;;;0.70;95.90;;;;;;4237965;28;20074;-70
2024/01/11 06:13:22;;;;;;;35.92;22.00;;;0.70;95.80;;;;;;4237367;28;20450;-69
2024/01/11 06:15:24;;;;;;;42.40;24.27;;;0.70;95.90;;;;;;4233975;28;20055;-69
2024/01/11 06:17:26;;;;;;;36.45;22.40;;;0.60;95.90;;;;;;4233351;28;20127;-70
2024/01/11 06:19:29;;;;;;;38.17;23.27;;;0.60;95.90;;;;;;4232690;28;20067;-69
2024/01/11 06:21:31;;;;;;;40.22;23.40;;;0.50;95.70;;;;;;4233621;28;20059;-70
2024/01/11 06:23:33;;;;;;;38.20;21.92;;;0.50;96.10;;;;;;4233864;28;20040;-70
2024/01/11 06:25:35;;;;;;;36.33;21.25;;;0.50;96.10;;;;;;4233213;28;20043;-70
2024/01/11 06:27:38;;;;;;;33.25;20.48;;;0.50;96.30;;;;;;4249234;27;20047;-70
2024/01/11 06:29:41;;;;;;;36.40;21.27;;;0.60;96.40;;;;;;4250047;27;20043;-70
2024/01/11 06:31:43;;;;;;;27.57;15.37;;;0.80;97.10;;;;;;4249690;27;20051;-71
2024/01/11 06:33:45;;;;;;;34.65;21.38;;;0.80;96.60;;;;;;4249396;27;20048;-71
2024/01/11 06:35:52;;;;;;;36.05;21.48;;;0.90;97.10;;;;;;4248996;27;20126;-70
2024/01/11 06:37:54;;;;;;;38.83;21.90;;;1.00;97.10;;;;;;4249263;27;20098;-70
2024/01/11 06:39:56;;;;;;;39.20;22.48;;;1.00;96.30;;;;;;4249374;27;20039;-70
2024/01/11 06:41:59;;;;;;;44.60;23.92;;;1.00;96.20;;;;;;4248888;27;20039;-70
2024/01/11 06:44:01;;;;;;;44.95;22.77;;;0.90;96.20;;;;;;4230755;28;20122;-71
2024/01/11 06:46:06;;;;;;;43.95;23.92;;;0.80;96.30;;;;;;4248757;27;20487;-70
2024/01/11 06:48:08;;;;;;;;;;;0.90;96.50;;;;;;4249579;27;20122;-71
2024/01/11 06:50:12;;;;;;;43.08;23.02;;;0.80;96.50;;;;;;4230866;27;19920;-71
2024/01/11 06:52:14;;;;;;;41.30;23.25;;;0.70;96.50;;;;;;4248731;27;20047;-71
2024/01/11 06:54:16;;;;;;;37.65;21.25;;;0.70;96.70;;;;;;4249073;27;20047;-71
2024/01/11 06:56:19;;;;;;;38.67;22.98;;;0.80;97.10;;;;;;4230769;28;20194;-71
2024/01/11 06:58:22;;;;;;;38.80;22.52;;;0.80;96.80;;;;;;4249688;27;20055;-71
2024/01/11 07:00:24;;;;;;;36.33;21.95;;;0.80;97.00;;;;;;4249663;27;20130;-67
2024/01/11 07:02:27;;;;;;;35.30;21.48;;;0.80;96.70;;;;;;4249087;27;20078;-71
2024/01/11 07:04:30;;;;;;;41.28;23.08;;;0.70;96.60;;;;;;4248690;27;20047;-70
2024/01/11 07:06:36;;;;;;;35.47;22.02;;;0.70;96.70;;;;;;4248772;27;20047;-68
2024/01/11 07:08:38;;;;;;;39.50;23.52;;;0.70;97.00;;;;;;4231751;28;20058;-69
2024/01/11 07:10:42;;;;;;;36.00;21.88;;;0.70;96.90;;;;;;4249367;27;20089;-70
2024/01/11 07:12:45;;;;;;;41.90;22.38;;;0.80;96.90;;;;;;4248898;27;20043;-70
2024/01/11 07:14:48;;;;;;;36.47;21.35;;;0.80;96.70;;;;;;4248762;27;20050;-70
2024/01/11 07:16:51;;;;;;;42.00;21.92;;;0.90;97.10;;;;;;4249094;27;20051;-68
2024/01/11 07:18:54;;;;;;;38.45;22.58;;;1.00;96.90;;;;;;4249404;27;20126;-68
2024/01/11 07:21:00;;;;;;;39.22;22.10;;;0.90;96.80;;;;;;4251483;27;20486;-68
2024/01/11 07:23:02;;;;;;;52.83;22.67;;;0.90;97.00;;;;;;4252462;27;20039;-68
2024/01/11 07:25:05;;;;;;;38.55;21.73;;;1.00;96.90;;;;;;4249950;27;20112;-68
2024/01/11 07:27:09;;;;;;;41.75;21.98;;;1.00;97.10;;;;;;4249324;27;20050;-67
2024/01/11 07:29:11;;;;;;;37.70;22.48;;;1.00;96.80;;;;;;4248863;27;20047;-71
2024/01/11 07:31:13;;;;;;;36.25;21.85;;;1.00;96.90;;;;;;4248596;27;20074;-70
2024/01/11 07:33:16;;;;;;;42.15;21.98;;;0.90;96.80;;;;;;4248409;27;20482;-70
2024/01/11 07:35:21;;;;;;;50.72;25.23;;;0.90;97.20;;;;;;4248308;27;20451;-71
2024/01/11 07:37:26;;;;;;;48.30;23.67;;;0.80;96.50;;;;;;4248665;27;20047;-71
2024/01/11 07:39:30;;;;;;;40.03;17.83;;;0.80;97.00;;;;;;4248260;27;20047;-71
2024/01/11 07:41:32;;;;;;;55.60;24.10;;;0.90;97.30;;;;;;4248404;27;20099;-68
2024/01/11 07:43:35;;;;;;;58.70;22.42;;;0.80;96.90;;;;;;4249088;27;20055;-68
2024/01/11 07:45:54;;;;;;;59.22;22.90;;;0.80;97.20;;;;;;4248466;27;20068;-70
2024/01/11 07:47:56;;;;;;;56.60;26.23;;;0.80;97.20;;;;;;4249078;27;20457;-70
2024/01/11 07:49:58;;;;;;;62.70;25.10;;;0.80;96.70;;;;;;4247985;27;20054;-70
2024/01/11 07:52:05;;;;;;;46.72;23.40;;;0.90;97.20;;;;;;4248322;27;20074;-70
2024/01/11 07:54:07;;;;;;;53.25;23.70;;;0.90;97.00;;;;;;4230326;28;20044;-69
2024/01/11 07:56:09;;;;;;;40.13;23.38;;;0.80;96.70;;;;;;4230599;28;20044;-70
2024/01/11 07:58:12;;;;;;;47.28;24.63;;;0.80;96.40;;;;;;4248340;27;20050;-70
2024/01/11 08:00:15;;;;;;;39.17;23.08;;;0.70;96.70;;;;;;4247843;27;20055;-71
2024/01/11 08:02:17;;;;;;;36.03;21.45;;;0.80;97.20;;;;;;4229722;28;20048;-69
2024/01/11 08:04:20;;;;;;;35.10;21.67;;;0.80;97.20;;;;;;4247942;27;20081;-70
2024/01/11 08:06:22;;;;;;;38.58;20.80;;;0.90;97.00;;;;;;4247726;27;20055;-69
2024/01/11 08:08:26;;;;;;;41.28;22.83;;;1.00;97.40;;;;;;4247711;27;20060;-69
2024/01/11 08:10:30;;;;;;;45.42;22.42;;;1.10;97.40;;;;;;4249966;27;20078;-69
2024/01/11 08:12:32;;;;;;;41.05;21.20;;;1.00;96.90;;;;;;4249308;27;20398;-71
2024/01/11 08:14:34;;;;;;;48.92;24.38;;;1.00;97.00;;;;;;4247893;27;20141;-69
2024/01/11 08:16:37;;;;;;;38.00;21.10;;;1.10;96.40;;;;;;4229474;28;20055;-70
2024/01/11 08:18:40;;;;;;;73.88;25.08;;;1.20;97.20;;;;;;4248177;27;20054;-67
2024/01/11 08:20:42;;;;;;;54.80;24.35;;;1.20;96.80;;;;;;4248319;27;20413;-71
2024/01/11 08:22:45;;;;;;;55.88;24.05;;;1.30;97.00;;;;;;4248807;28;20557;-70
2024/01/11 08:24:49;;;;;;;54.90;22.75;;;1.30;96.60;;;;;;4250208;28;20062;-70
2024/01/11 08:26:53;;;;;;;44.20;24.17;;;1.30;96.70;;;;;;4249400;28;20080;-71
2024/01/11 08:28:55;;;;;;;57.38;22.83;;;1.40;96.10;;;;;;4250032;28;20620;-70
2024/01/11 08:30:57;;;;;;;36.47;21.23;;;1.40;96.90;;;;;;4250690;28;20043;-70
2024/01/11 08:33:00;;;;;;;38.95;21.00;;;1.30;96.20;;;;;;4249400;28;20054;-70
2024/01/11 08:35:04;;;;;;;46.70;23.85;;;1.40;96.60;;;;;;4249131;28;20067;-69
2024/01/11 08:37:06;;;;;;;49.78;23.65;;;1.30;95.90;;;;;;4248603;28;20478;-69
2024/01/11 08:39:14;;;;;;;48.78;22.95;;;1.30;96.20;;;;;;4249703;28;20079;-68
2024/01/11 08:41:18;;;;;;;37.45;22.40;;;1.20;96.00;;;;;;4248782;27;20114;-68
2024/01/11 08:43:20;;;;;;;46.42;23.77;;;1.20;96.20;;;;;;4249266;28;20099;-69
2024/01/11 08:45:22;;;;;;;45.42;22.90;;;1.20;96.00;;;;;;4249716;28;20459;-69
2024/01/11 08:47:25;;;;;;;48.38;22.20;;;1.20;96.30;;;;;;4249247;28;20143;-69
2024/01/11 08:49:29;;;;;;;51.90;22.90;;;1.20;96.00;;;;;;4249063;28;20053;-69
2024/01/11 08:51:32;;;;;;;87.57;27.33;;;1.20;95.90;;;;;;4229777;28;20063;-69
2024/01/11 08:53:34;;;;;;;58.10;23.90;;;1.30;96.10;;;;;;4249451;28;20051;-69
2024/01/11 08:55:36;;;;;;;40.05;23.25;;;1.30;95.50;;;;;;4249201;28;20073;-70
2024/01/11 08:57:40;;;;;;;42.10;22.85;;;1.30;95.70;;;;;;4248804;28;20543;-70
2024/01/11 08:59:42;;;;;;;37.33;22.23;;;1.30;95.60;;;;;;4248342;28;20050;-70
2024/01/11 09:01:44;;;;;;;36.70;22.40;;;1.30;95.80;;;;;;4249156;27;20096;-70
2024/01/11 09:03:58;;;;;;;46.88;23.45;;;1.40;95.50;;;;;;4250469;27;20058;-70
2024/01/11 09:06:03;;;;;;;41.33;22.85;;;1.40;96.10;;;;;;4250376;27;20039;-70
2024/01/11 09:08:06;;;;;;;38.47;23.10;;;1.30;95.60;;;;;;4250705;27;20140;-69
2024/01/11 09:10:11;;;;;;;36.95;22.58;;;1.30;95.40;;;;;;4251110;27;20047;-70
2024/01/11 09:12:13;;;;;;;38.97;22.73;;;1.30;95.30;;;;;;4251454;27;20054;-69
2024/01/11 09:14:17;;;;;;;53.30;24.70;;;1.30;95.00;;;;;;4251650;27;20047;-69
2024/01/11 09:16:19;;;;;;;43.60;22.95;;;1.20;95.00;;;;;;4252789;27;20043;-71
2024/01/11 09:18:22;;;;;;;38.75;23.05;;;1.20;94.70;;;;;;4255062;27;20096;-70
2024/01/11 09:20:24;;;;;;;37.97;22.30;;;1.10;94.80;;;;;;4251636;27;20088;-70
2024/01/11 09:22:27;;;;;;;40.38;24.40;;;1.20;95.20;;;;;;4250229;27;20043;-70
2024/01/11 09:24:30;;;;;;;38.97;22.02;;;1.10;94.70;;;;;;4251698;27;20447;-70
2024/01/11 09:26:38;;;;;;;41.55;23.40;;;1.20;95.40;;;;;;4251098;27;20398;-71
2024/01/11 09:28:40;;;;;;;40.80;22.67;;;1.20;94.70;;;;;;4250822;27;20473;-70
2024/01/11 09:30:44;;;;;;;42.40;24.30;;;1.20;94.70;;;;;;4250083;27;20053;-68
2024/01/11 09:32:47;;;;;;;39.38;22.95;;;1.20;94.80;;;;;;4250254;27;20135;-69
2024/01/11 09:34:50;;;;;;;40.97;24.23;;;1.20;94.70;;;;;;4249636;27;20458;-69
2024/01/11 09:36:52;;;;;;;41.45;23.65;;;1.20;94.40;;;;;;4250313;27;20047;-69
2024/01/11 09:38:55;;;;;;;39.53;24.05;;;1.20;94.30;;;;;;4250258;27;20043;-68
2024/01/11 09:41:07;;;;;;;47.75;24.55;;;1.30;94.80;;;;;;4250216;27;20070;-68
2024/01/11 09:43:10;;;;;;;43.05;23.73;;;1.30;94.00;;;;;;4249981;27;20066;-69
2024/01/11 09:45:13;;;;;;;44.65;24.88;;;1.20;94.50;;;;;;4249864;27;20655;-67
2024/01/11 09:47:19;;;;;;;49.08;25.08;;;1.30;94.20;;;;;;4250241;27;20055;-68
2024/01/11 09:49:23;;;;;;;52.42;26.30;;;1.30;93.90;;;;;;4250364;27;20054;-70
2024/01/11 09:51:26;;;;;;;42.03;24.92;;;1.30;94.10;;;;;;4232269;28;20048;-69
2024/01/11 09:53:30;;;;;;;42.92;25.15;;;1.40;94.20;;;;;;4250609;27;20181;-69
2024/01/11 09:55:32;;;;;;;50.42;26.08;;;1.20;93.50;;;;;;4250613;27;20358;-67
2024/01/11 09:57:39;;;;;;;55.20;25.67;;;1.20;93.80;;;;;;4251362;27;20488;-69
2024/01/11 09:59:42;;;;;;;45.72;25.38;;;1.20;94.00;;;;;;4232718;28;20430;-69
2024/01/11 10:01:45;;;;;;;46.15;25.20;;;1.30;94.50;;;;;;4250891;27;20043;-69
2024/01/11 10:03:49;;;;;;;46.67;25.92;;;1.40;94.00;;;;;;4250312;27;20466;-69
2024/01/11 10:05:52;;;;;;;44.75;25.67;;;1.40;93.30;;;;;;4252947;27;20486;-67
2024/01/11 10:07:55;;;;;;;35.85;19.52;;;1.40;93.70;;;;;;4252401;27;20054;-70
2024/01/11 10:09:58;;;;;;;51.90;25.08;;;1.40;93.30;;;;;;4250821;27;20047;-71
2024/01/11 10:12:00;;;;;;;41.80;24.73;;;1.50;93.50;;;;;;4239236;27;20044;-70
2024/01/11 10:14:05;;;;;;;42.15;22.92;;;1.60;95.30;;;;;;4234012;28;20062;-69
2024/01/11 10:16:09;;;;;;;41.03;25.40;;;1.90;95.10;;;;;;4235106;28;20180;-70
2024/01/11 10:18:12;;;;;;;40.80;22.52;;;2.10;93.00;;;;;;4236366;28;20051;-70
2024/01/11 10:20:16;;;;;;;46.95;26.25;;;2.40;94.70;;;;;;4240332;27;20039;-68
2024/01/11 10:22:20;;;;;;;43.88;24.67;;;2.40;92.60;;;;;;4245225;27;20453;-67
2024/01/11 10:24:26;;;;;;;53.13;25.63;;;2.30;92.90;;;;;;4240731;27;20051;-68
2024/01/11 10:26:29;;;;;;;51.17;25.52;;;2.50;93.80;;;;;;4240132;27;20047;-68
2024/01/11 10:28:36;;;;;;;49.88;24.20;;;2.60;93.40;;;;;;4244900;27;20126;-67
2024/01/11 10:30:39;;;;;;;46.70;24.77;;;3.00;92.70;;;;;;4223600;28;20485;-68
2024/01/11 10:32:44;;;;;;;42.30;24.95;;;2.80;91.50;;;;;;4239670;27;20043;-69